Time;durP1;ratioP1;P1;durP2;ratioP2;P2;SDS_P1;SDS_P2;PMS_P1;PMS_P2;Temp;Humidity;BMP_temperature;BMP_pressure;BME280_temperature;BME280_humidity;BME280_pressure;Samples;Min_cycle;Max_cycle;Signal;HPM_P1;HPM_P2
2023/03/07 00:00:42;;;;;;;22.00;13.32;;;3.90;99.90;;;;;;5074494;28;20043;-72
2023/03/07 00:03:11;;;;;;;17.00;11.60;;;3.90;99.90;;;;;;5091004;28;20036;-73
2023/03/07 00:05:37;;;;;;;19.42;12.35;;;3.90;99.90;;;;;;5074205;28;20071;-72
2023/03/07 00:08:06;;;;;;;17.45;11.57;;;3.90;99.90;;;;;;5061488;28;20189;-72
2023/03/07 00:10:32;;;;;;;15.55;10.60;;;3.90;99.90;;;;;;5042629;28;20046;-72
2023/03/07 00:12:57;;;;;;;15.73;10.60;;;3.90;99.90;;;;;;5064789;28;20047;-72
2023/03/07 00:15:23;;;;;;;17.83;10.52;;;3.90;99.90;;;;;;5077529;28;20118;-72
2023/03/07 00:17:49;;;;;;;12.75;8.25;;;3.90;99.90;;;;;;5075840;28;20036;-73
2023/03/07 00:20:15;;;;;;;10.43;7.00;;;3.90;99.90;;;;;;5079403;28;20048;-73
2023/03/07 00:22:42;;;;;;;10.90;7.35;;;3.90;99.90;;;;;;5063022;28;20044;-72
2023/03/07 00:25:09;;;;;;;11.40;6.30;;;3.90;99.90;;;;;;5064739;28;20047;-73
2023/03/07 00:27:38;;;;;;;7.80;4.65;;;3.90;99.90;;;;;;5064818;28;20122;-73
2023/03/07 00:30:04;;;;;;;9.40;5.45;;;3.90;99.90;;;;;;5076339;28;20051;-73
2023/03/07 00:32:30;;;;;;;10.13;4.93;;;3.90;99.90;;;;;;5077837;28;20108;-72
2023/03/07 00:34:58;;;;;;;7.50;4.28;;;3.90;99.90;;;;;;5048846;28;20561;-72
2023/03/07 00:37:24;;;;;;;8.30;4.70;;;3.90;99.90;;;;;;5068772;28;20048;-72
2023/03/07 00:39:50;;;;;;;7.68;4.07;;;3.90;99.90;;;;;;5042470;28;20111;-73
2023/03/07 00:42:16;;;;;;;7.20;3.17;;;3.90;99.90;;;;;;5073758;28;20073;-73
2023/03/07 00:44:42;;;;;;;5.32;2.80;;;3.90;99.90;;;;;;5061918;28;20075;-74
2023/03/07 00:47:08;;;;;;;9.18;2.70;;;4.00;99.90;;;;;;5046125;28;20067;-73
2023/03/07 00:49:34;;;;;;;6.70;2.63;;;4.00;99.90;;;;;;5079780;28;20044;-74
2023/03/07 00:52:00;;;;;;;8.45;2.35;;;3.90;99.90;;;;;;5060141;28;20141;-73
2023/03/07 00:54:25;;;;;;;6.85;1.92;;;4.00;99.90;;;;;;5028588;28;20075;-73
2023/03/07 00:56:51;;;;;;;3.88;1.30;;;4.00;99.90;;;;;;5060141;28;20071;-73
2023/03/07 00:59:17;;;;;;;3.35;1.30;;;3.90;99.90;;;;;;5058681;28;20362;-73
2023/03/07 01:01:43;;;;;;;6.05;1.35;;;3.90;99.90;;;;;;5056375;28;20190;-73
2023/03/07 01:04:09;;;;;;;4.15;1.35;;;3.80;99.90;;;;;;5045369;28;20050;-73
2023/03/07 01:06:35;;;;;;;5.70;1.70;;;3.70;99.90;;;;;;5069604;28;20043;-73
2023/03/07 01:09:06;;;;;;;3.80;1.40;;;3.70;99.90;;;;;;5063469;28;20140;-74
2023/03/07 01:11:32;;;;;;;5.15;1.92;;;3.70;99.90;;;;;;5048020;28;20138;-74
2023/03/07 01:14:00;;;;;;;8.45;2.72;;;3.70;99.90;;;;;;5039940;28;20068;-73
2023/03/07 01:16:29;;;;;;;6.78;2.13;;;3.70;99.90;;;;;;5054464;28;20076;-75
2023/03/07 01:19:01;;;;;;;3.55;1.85;;;3.70;99.90;;;;;;5071066;28;20776;-74
2023/03/07 01:21:33;;;;;;;5.32;2.00;;;3.70;99.90;;;;;;5071351;28;20677;-74
2023/03/07 01:23:59;;;;;;;7.10;2.10;;;3.70;99.90;;;;;;5070409;28;20499;-74
2023/03/07 01:26:30;;;;;;;8.70;2.50;;;3.70;99.90;;;;;;5070874;28;20059;-74
2023/03/07 01:28:58;;;;;;;10.65;2.20;;;3.70;99.90;;;;;;5048571;28;20228;-74
2023/03/07 01:31:25;;;;;;;4.97;2.20;;;3.70;99.90;;;;;;5065927;28;20108;-73
2023/03/07 01:33:52;;;;;;;4.45;2.25;;;3.70;99.90;;;;;;5072412;28;20055;-73
2023/03/07 01:36:31;;;;;;;7.10;2.50;;;3.80;99.90;;;;;;5037932;28;20094;-73
2023/03/07 01:39:06;;;;;;;6.13;3.03;;;3.70;99.90;;;;;;5071647;28;20502;-74
2023/03/07 01:41:36;;;;;;;6.65;3.38;;;3.70;99.90;;;;;;5072473;28;20055;-74
2023/03/07 01:44:10;;;;;;;8.10;2.83;;;3.70;99.90;;;;;;5073783;28;20048;-74
2023/03/07 01:46:52;;;;;;;5.80;3.10;;;3.70;99.90;;;;;;5071615;28;20051;-74
2023/03/07 01:49:20;;;;;;;10.18;3.00;;;3.70;99.90;;;;;;5051798;28;20142;-74
2023/03/07 01:52:12;;;;;;;8.95;3.30;;;3.60;99.90;;;;;;5063083;28;20354;-75
2023/03/07 01:54:41;;;;;;;6.47;3.10;;;3.60;99.90;;;;;;5070535;28;20083;-74
2023/03/07 01:57:08;;;;;;;8.20;3.13;;;3.60;99.90;;;;;;5068373;28;20592;-74
2023/03/07 01:59:39;;;;;;;10.32;3.13;;;3.60;99.90;;;;;;5054615;28;20312;-74
2023/03/07 02:02:10;;;;;;;10.93;3.30;;;3.50;99.90;;;;;;5071722;28;20301;-74
2023/03/07 02:04:56;;;;;;;5.93;3.00;;;3.50;99.90;;;;;;5071630;28;20063;-74
2023/03/07 02:07:26;;;;;;;8.48;3.33;;;3.50;99.90;;;;;;5072297;28;20176;-74
2023/03/07 02:09:53;;;;;;;8.20;3.15;;;3.50;99.90;;;;;;5069964;28;20139;-74
2023/03/07 02:12:19;;;;;;;9.45;4.03;;;3.50;99.90;;;;;;5068919;28;20040;-74
2023/03/07 02:14:47;;;;;;;10.80;3.83;;;3.50;99.90;;;;;;5052941;28;20289;-74
2023/03/07 02:17:13;;;;;;;10.60;3.35;;;3.50;99.90;;;;;;5070988;28;20032;-74
2023/03/07 02:20:04;;;;;;;11.30;3.10;;;3.50;99.90;;;;;;5039540;28;20491;-74
2023/03/07 02:22:30;;;;;;;10.38;3.35;;;3.50;99.90;;;;;;5061852;28;20610;-73
2023/03/07 02:25:31;;;;;;;6.68;2.53;;;3.50;99.90;;;;;;5065587;28;20052;-74
2023/03/07 02:27:58;;;;;;;7.90;2.70;;;3.50;99.90;;;;;;5074505;28;20137;-74
2023/03/07 02:30:27;;;;;;;7.70;2.58;;;3.60;99.90;;;;;;5080010;28;20098;-74
2023/03/07 02:32:53;;;;;;;9.57;2.88;;;3.50;99.90;;;;;;5044048;28;20039;-74
2023/03/07 02:35:22;;;;;;;7.67;2.47;;;3.50;99.90;;;;;;5062188;28;20036;-74
2023/03/07 02:37:54;;;;;;;12.05;3.13;;;3.50;99.90;;;;;;5081600;28;20048;-73
2023/03/07 02:40:23;;;;;;;9.77;2.60;;;3.50;99.90;;;;;;5064678;28;20417;-73
2023/03/07 02:42:51;;;;;;;9.48;2.45;;;3.40;99.90;;;;;;5060273;28;20407;-73
2023/03/07 02:45:18;;;;;;;10.70;2.60;;;3.50;99.90;;;;;;5081363;28;20044;-73
2023/03/07 02:47:45;;;;;;;15.13;2.63;;;3.40;99.90;;;;;;5062192;28;20044;-73
2023/03/07 02:50:12;;;;;;;14.98;2.90;;;3.40;99.90;;;;;;5065870;28;20044;-73
2023/03/07 02:52:38;;;;;;;12.35;2.90;;;3.40;99.90;;;;;;5059309;28;20108;-73
2023/03/07 02:55:05;;;;;;;8.57;2.60;;;3.30;99.90;;;;;;5047203;28;20487;-73
2023/03/07 02:57:31;;;;;;;13.25;2.90;;;3.30;99.90;;;;;;5064805;28;20056;-74
2023/03/07 02:59:56;;;;;;;16.00;2.95;;;3.20;99.90;;;;;;5061287;28;20054;-72
2023/03/07 03:02:22;;;;;;;13.43;3.28;;;3.20;99.90;;;;;;5068014;28;20055;-72
2023/03/07 03:04:48;;;;;;;13.25;2.78;;;3.20;99.90;;;;;;5073745;28;20040;-72
2023/03/07 03:07:14;;;;;;;12.55;2.67;;;3.10;99.90;;;;;;5068505;28;20037;-73
2023/03/07 03:09:39;;;;;;;11.55;2.67;;;3.00;99.90;;;;;;5065152;28;20047;-73
2023/03/07 03:12:05;;;;;;;11.00;2.70;;;3.00;99.90;;;;;;5083765;28;20157;-73
2023/03/07 03:14:31;;;;;;;13.60;2.93;;;3.00;99.90;;;;;;5080155;28;20042;-73
2023/03/07 03:16:57;;;;;;;10.00;3.00;;;3.00;99.90;;;;;;5062745;28;20036;-73
2023/03/07 03:19:23;;;;;;;14.50;2.60;;;3.10;99.90;;;;;;5066551;28;20040;-73
2023/03/07 03:21:49;;;;;;;15.57;2.30;;;3.00;99.90;;;;;;5033777;28;20040;-73
2023/03/07 03:24:15;;;;;;;10.57;2.20;;;3.00;99.90;;;;;;5099098;27;20402;-73
2023/03/07 03:26:44;;;;;;;13.65;2.47;;;2.90;99.90;;;;;;5063974;28;20083;-73
2023/03/07 03:29:09;;;;;;;10.83;2.10;;;3.00;99.90;;;;;;5053511;28;20509;-73
2023/03/07 03:31:35;;;;;;;11.73;2.40;;;2.90;99.90;;;;;;5081658;28;20054;-73
2023/03/07 03:34:02;;;;;;;12.57;2.23;;;2.90;99.90;;;;;;5074556;28;20453;-73
2023/03/07 03:36:28;;;;;;;14.60;2.37;;;2.90;99.90;;;;;;5052135;28;20773;-73
2023/03/07 03:38:55;;;;;;;7.90;1.60;;;2.90;99.90;;;;;;5071778;28;20401;-72
2023/03/07 03:41:22;;;;;;;12.60;2.30;;;2.80;99.90;;;;;;5081402;28;20052;-73
2023/03/07 03:43:47;;;;;;;10.90;2.60;;;2.90;99.90;;;;;;5088239;28;20040;-73
2023/03/07 03:46:15;;;;;;;12.00;2.60;;;2.80;99.90;;;;;;5089349;28;20115;-73
2023/03/07 03:48:41;;;;;;;11.70;2.50;;;2.80;99.90;;;;;;5065692;28;20736;-74
2023/03/07 03:51:11;;;;;;;12.23;2.22;;;2.80;99.90;;;;;;5069669;28;20531;-74
2023/03/07 03:53:38;;;;;;;10.05;2.45;;;2.80;99.90;;;;;;5074363;28;20482;-74
2023/03/07 03:56:07;;;;;;;7.80;2.00;;;2.80;99.90;;;;;;5089792;28;20071;-73
2023/03/07 03:58:33;;;;;;;13.10;1.87;;;2.80;99.90;;;;;;5079967;27;20514;-72
2023/03/07 04:01:04;;;;;;;10.20;1.90;;;2.80;99.90;;;;;;5055399;28;20063;-73
2023/03/07 04:03:36;;;;;;;10.27;2.03;;;2.80;99.90;;;;;;5039137;28;20055;-74
2023/03/07 04:06:14;;;;;;;11.33;2.30;;;2.80;99.90;;;;;;5055743;28;20582;-74
2023/03/07 04:08:41;;;;;;;12.10;2.00;;;2.80;99.90;;;;;;5091457;28;20383;-73
2023/03/07 04:11:07;;;;;;;11.23;2.03;;;2.80;99.90;;;;;;5038082;28;20044;-73
2023/03/07 04:13:33;;;;;;;9.17;1.60;;;2.80;99.90;;;;;;5055748;28;20059;-72
2023/03/07 04:15:59;;;;;;;11.33;2.07;;;2.70;99.90;;;;;;5053495;28;20055;-73
2023/03/07 04:18:25;;;;;;;16.07;2.43;;;2.80;99.90;;;;;;5052010;28;20494;-72
2023/03/07 04:20:57;;;;;;;13.27;2.33;;;2.70;99.90;;;;;;5070987;28;20190;-72
2023/03/07 04:23:24;;;;;;;8.37;1.77;;;2.70;99.90;;;;;;5084839;28;20044;-72
2023/03/07 04:25:54;;;;;;;11.07;2.13;;;2.60;99.90;;;;;;5086623;28;20042;-73
2023/03/07 04:28:21;;;;;;;7.10;1.88;;;2.70;99.90;;;;;;5068919;28;20040;-73
2023/03/07 04:30:52;;;;;;;11.43;2.30;;;2.60;99.90;;;;;;5079744;28;20139;-73
2023/03/07 04:33:18;;;;;;;9.82;1.80;;;2.60;99.90;;;;;;5090292;28;20087;-73
2023/03/07 04:35:44;;;;;;;9.67;1.80;;;2.60;99.90;;;;;;5049057;28;20373;-73
2023/03/07 04:38:11;;;;;;;11.00;1.93;;;2.70;99.90;;;;;;5085284;28;20060;-73
2023/03/07 04:40:37;;;;;;;13.90;2.10;;;2.80;99.90;;;;;;5069797;28;20058;-73
2023/03/07 04:43:04;;;;;;;10.40;2.00;;;2.70;99.90;;;;;;5078077;28;20052;-75
2023/03/07 04:45:36;;;;;;;10.30;1.93;;;2.70;99.90;;;;;;5068120;28;20521;-76
2023/03/07 04:48:02;;;;;;;9.95;1.80;;;2.80;99.90;;;;;;5068425;28;20079;-76
2023/03/07 04:50:27;;;;;;;8.97;1.80;;;2.80;99.90;;;;;;5085944;28;20083;-75
2023/03/07 04:52:53;;;;;;;12.80;2.88;;;2.80;99.90;;;;;;5061688;28;20075;-75
2023/03/07 04:55:19;;;;;;;8.67;1.80;;;2.80;99.90;;;;;;5059581;28;20040;-75
2023/03/07 04:57:46;;;;;;;10.27;1.50;;;2.80;99.90;;;;;;5082887;28;20520;-75
2023/03/07 05:00:13;;;;;;;10.17;1.90;;;2.90;99.90;;;;;;5067820;28;20079;-75
2023/03/07 05:02:42;;;;;;;9.93;1.70;;;2.90;99.90;;;;;;5082839;28;20073;-75
2023/03/07 05:05:07;;;;;;;11.30;2.40;;;2.90;99.90;;;;;;5077613;28;20075;-75
2023/03/07 05:07:33;;;;;;;10.52;2.15;;;2.80;99.90;;;;;;5038285;28;20171;-76
2023/03/07 05:09:59;;;;;;;8.77;2.13;;;2.90;99.90;;;;;;5072094;28;20185;-76
2023/03/07 05:12:25;;;;;;;13.40;1.83;;;2.90;99.90;;;;;;5075439;28;20056;-76
2023/03/07 05:14:51;;;;;;;10.13;1.42;;;3.00;99.90;;;;;;5096120;27;20054;-75
2023/03/07 05:17:18;;;;;;;8.63;1.80;;;3.00;99.90;;;;;;5050525;28;20132;-76
2023/03/07 05:19:44;;;;;;;12.02;2.22;;;3.00;99.90;;;;;;5099640;28;20047;-76
2023/03/07 05:22:10;;;;;;;7.63;1.58;;;3.00;99.90;;;;;;5083557;28;20028;-76
2023/03/07 05:24:36;;;;;;;12.40;2.20;;;3.10;99.90;;;;;;5076983;28;20044;-75
2023/03/07 05:27:02;;;;;;;9.30;1.77;;;3.00;99.90;;;;;;5077833;28;20635;-73
2023/03/07 05:29:28;;;;;;;9.38;1.63;;;3.00;99.90;;;;;;5081195;28;20106;-73
2023/03/07 05:31:57;;;;;;;7.45;1.85;;;3.10;99.90;;;;;;5076633;28;20347;-73
2023/03/07 05:34:23;;;;;;;11.33;2.00;;;3.00;99.90;;;;;;5075033;28;20119;-74
2023/03/07 05:36:49;;;;;;;14.45;2.38;;;3.10;99.90;;;;;;5095715;28;20127;-73
2023/03/07 05:39:15;;;;;;;13.20;2.37;;;3.00;99.90;;;;;;5060945;28;20263;-74
2023/03/07 05:41:41;;;;;;;8.60;1.67;;;3.00;99.90;;;;;;5066173;28;20461;-73
2023/03/07 05:44:07;;;;;;;11.13;1.73;;;3.00;99.90;;;;;;5047326;28;20047;-74
2023/03/07 05:46:33;;;;;;;7.30;1.85;;;3.00;99.90;;;;;;5084395;28;20047;-74
2023/03/07 05:48:58;;;;;;;9.53;2.00;;;3.10;99.90;;;;;;5077961;28;20048;-74
2023/03/07 05:51:24;;;;;;;12.15;2.40;;;3.10;99.90;;;;;;5080372;28;20473;-74
2023/03/07 05:53:53;;;;;;;9.45;1.85;;;3.10;99.90;;;;;;5044876;28;20107;-74
2023/03/07 05:56:19;;;;;;;10.32;1.70;;;3.10;99.90;;;;;;5093724;28;20501;-74
2023/03/07 05:58:45;;;;;;;9.52;1.80;;;3.10;99.90;;;;;;5058094;28;20143;-72
2023/03/07 06:01:10;;;;;;;10.60;2.33;;;3.10;99.90;;;;;;5080105;28;20044;-72
2023/03/07 06:03:36;;;;;;;10.73;2.13;;;3.10;99.90;;;;;;5057728;28;20044;-73
2023/03/07 06:06:02;;;;;;;12.10;1.90;;;3.10;99.90;;;;;;5072949;28;20044;-72
2023/03/07 06:08:28;;;;;;;10.73;2.03;;;3.20;99.90;;;;;;5077042;28;20047;-72
2023/03/07 06:10:57;;;;;;;10.65;2.33;;;3.20;99.90;;;;;;5056416;28;20407;-74
2023/03/07 06:13:27;;;;;;;13.17;2.20;;;3.20;99.90;;;;;;5083067;28;20042;-73
2023/03/07 06:15:53;;;;;;;14.43;2.47;;;3.20;99.90;;;;;;5081931;28;20052;-72
2023/03/07 06:18:21;;;;;;;12.43;3.03;;;3.20;99.90;;;;;;5079472;28;20126;-72
2023/03/07 06:20:59;;;;;;;11.88;1.90;;;3.20;99.90;;;;;;5076462;28;20218;-72
2023/03/07 06:23:27;;;;;;;8.30;1.88;;;3.10;99.90;;;;;;5082640;28;20092;-72
2023/03/07 06:25:53;;;;;;;10.67;1.90;;;3.10;99.90;;;;;;5080796;28;20376;-72
2023/03/07 06:28:19;;;;;;;13.95;2.33;;;3.20;99.90;;;;;;5073662;28;20055;-72
2023/03/07 06:30:45;;;;;;;8.30;2.10;;;3.10;99.90;;;;;;5061035;28;20304;-73
2023/03/07 06:33:11;;;;;;;11.77;1.92;;;3.20;99.90;;;;;;5069785;28;20177;-74
2023/03/07 06:35:45;;;;;;;13.33;2.53;;;3.20;99.90;;;;;;5074670;28;20104;-72
2023/03/07 06:38:13;;;;;;;13.23;2.20;;;3.20;99.90;;;;;;5073048;28;20101;-72
2023/03/07 06:40:42;;;;;;;12.18;2.30;;;3.20;99.90;;;;;;5075223;28;20054;-72
2023/03/07 06:43:11;;;;;;;10.20;2.13;;;3.20;99.90;;;;;;5070904;28;20826;-73
2023/03/07 06:45:36;;;;;;;18.55;2.13;;;3.20;99.90;;;;;;5056485;28;20074;-74
2023/03/07 06:48:03;;;;;;;16.65;2.63;;;3.20;99.90;;;;;;5046047;28;20582;-72
2023/03/07 06:50:29;;;;;;;9.50;1.65;;;3.20;99.90;;;;;;5033845;28;20074;-75
2023/03/07 06:52:58;;;;;;;14.32;2.33;;;3.20;99.90;;;;;;5036297;28;20048;-73
2023/03/07 06:55:24;;;;;;;10.23;2.05;;;3.00;99.90;;;;;;5067167;28;20525;-73
2023/03/07 06:57:50;;;;;;;14.65;2.22;;;3.00;99.90;;;;;;5036680;28;20567;-72
2023/03/07 07:00:19;;;;;;;10.33;2.37;;;2.80;99.90;;;;;;5052931;28;20040;-72
2023/03/07 07:02:45;;;;;;;11.65;2.30;;;2.80;99.90;;;;;;5069914;28;20075;-72
2023/03/07 07:05:11;;;;;;;11.43;2.38;;;2.80;99.90;;;;;;5084879;28;20131;-72
2023/03/07 07:07:37;;;;;;;13.75;2.95;;;2.70;99.90;;;;;;5070530;28;20113;-72
2023/03/07 07:10:03;;;;;;;11.60;2.13;;;2.70;99.90;;;;;;5054180;28;20506;-73
2023/03/07 07:12:30;;;;;;;12.05;2.05;;;2.80;99.90;;;;;;5035452;28;20056;-73
2023/03/07 07:14:55;;;;;;;12.13;2.60;;;2.70;99.90;;;;;;5045317;28;20048;-72
2023/03/07 07:17:21;;;;;;;14.55;2.60;;;2.80;99.90;;;;;;5052435;28;20044;-72
2023/03/07 07:19:47;;;;;;;12.88;2.55;;;2.90;99.90;;;;;;5034668;28;20058;-73
2023/03/07 07:22:16;;;;;;;14.63;2.40;;;2.90;99.90;;;;;;5051255;28;20048;-74
2023/03/07 07:24:42;;;;;;;12.80;2.85;;;2.90;99.90;;;;;;5063939;28;20488;-73
2023/03/07 07:27:08;;;;;;;12.02;2.58;;;3.10;99.90;;;;;;5045208;28;20040;-74
2023/03/07 07:29:34;;;;;;;11.75;2.35;;;3.00;99.90;;;;;;5070219;28;20051;-74
2023/03/07 07:31:59;;;;;;;11.70;2.05;;;3.00;99.90;;;;;;5038163;28;20040;-74
2023/03/07 07:34:25;;;;;;;11.30;2.38;;;3.10;99.90;;;;;;5052854;28;20048;-73
2023/03/07 07:36:52;;;;;;;14.75;2.47;;;3.10;99.90;;;;;;5052471;28;20060;-74
2023/03/07 07:39:18;;;;;;;11.55;2.60;;;3.10;99.90;;;;;;5053208;28;20093;-74
2023/03/07 07:41:44;;;;;;;8.00;1.98;;;3.10;99.90;;;;;;5051645;28;20134;-74
2023/03/07 07:44:11;;;;;;;10.52;2.40;;;3.10;99.90;;;;;;5064552;28;20060;-73
2023/03/07 07:46:37;;;;;;;8.70;2.08;;;3.10;99.90;;;;;;5035955;28;20541;-73
2023/03/07 07:49:02;;;;;;;9.10;2.30;;;3.20;99.90;;;;;;5084565;28;20177;-73
2023/03/07 07:51:28;;;;;;;7.93;1.60;;;3.20;99.90;;;;;;5071468;28;20048;-72
2023/03/07 07:53:54;;;;;;;8.90;1.70;;;3.20;99.90;;;;;;5066536;28;20040;-72
2023/03/07 07:56:23;;;;;;;8.77;1.92;;;3.20;99.90;;;;;;5034237;28;20498;-74
2023/03/07 07:58:49;;;;;;;7.60;1.65;;;3.20;99.90;;;;;;5064489;28;20048;-73
2023/03/07 08:01:20;;;;;;;7.18;1.58;;;3.20;99.90;;;;;;5066728;28;20047;-73
2023/03/07 08:03:46;;;;;;;8.40;1.83;;;3.20;99.90;;;;;;5084650;28;20109;-73
2023/03/07 08:06:16;;;;;;;8.93;1.40;;;3.20;99.90;;;;;;5070116;28;20051;-73
2023/03/07 08:08:42;;;;;;;7.05;1.52;;;3.30;99.90;;;;;;5068319;28;20055;-74
2023/03/07 08:11:08;;;;;;;8.82;2.00;;;3.30;99.90;;;;;;5024410;28;20089;-74
2023/03/07 08:13:34;;;;;;;8.90;1.83;;;3.30;99.90;;;;;;5039633;28;20040;-74
2023/03/07 08:16:06;;;;;;;6.38;1.60;;;3.30;99.90;;;;;;5040360;28;20059;-73
2023/03/07 08:18:32;;;;;;;7.78;1.58;;;3.30;99.90;;;;;;5040407;28;20062;-73
2023/03/07 08:20:58;;;;;;;10.50;2.22;;;3.40;99.90;;;;;;5088318;28;20060;-73
2023/03/07 08:23:25;;;;;;;6.38;1.42;;;3.40;99.90;;;;;;5071116;28;20051;-74
2023/03/07 08:25:50;;;;;;;9.10;1.58;;;3.40;99.90;;;;;;5053907;28;20055;-73
2023/03/07 08:28:16;;;;;;;9.00;2.15;;;3.40;99.90;;;;;;5055112;28;21430;-73
2023/03/07 08:30:42;;;;;;;6.65;1.58;;;3.40;99.90;;;;;;5074379;28;20474;-73
2023/03/07 08:33:08;;;;;;;6.57;1.50;;;3.40;99.90;;;;;;5035509;28;20476;-73
2023/03/07 08:35:34;;;;;;;6.50;1.50;;;3.40;99.90;;;;;;5026369;28;20040;-73
2023/03/07 08:38:00;;;;;;;8.90;1.55;;;3.50;99.90;;;;;;5062991;28;20054;-73
2023/03/07 08:40:30;;;;;;;9.88;1.75;;;3.50;99.90;;;;;;5073043;28;20071;-73
2023/03/07 08:42:58;;;;;;;7.85;1.30;;;3.60;99.90;;;;;;5055057;28;20533;-73
2023/03/07 08:45:27;;;;;;;5.20;1.27;;;3.60;99.90;;;;;;5071382;28;20413;-74
2023/03/07 08:47:53;;;;;;;7.82;1.73;;;3.70;99.90;;;;;;5071717;28;20105;-73
2023/03/07 08:50:21;;;;;;;6.82;1.42;;;3.70;99.90;;;;;;5056659;28;20324;-73
2023/03/07 08:52:47;;;;;;;7.50;1.48;;;3.70;99.90;;;;;;5086044;27;20090;-73
2023/03/07 08:55:14;;;;;;;5.78;1.27;;;3.70;99.90;;;;;;5055560;28;20170;-73
2023/03/07 08:57:40;;;;;;;5.30;1.40;;;3.80;99.90;;;;;;5089217;27;20171;-73
2023/03/07 09:00:11;;;;;;;6.78;1.45;;;3.80;99.90;;;;;;5023224;28;20051;-73
2023/03/07 09:02:36;;;;;;;6.63;1.50;;;3.90;99.90;;;;;;5054573;28;20055;-73
2023/03/07 09:05:03;;;;;;;5.80;1.30;;;3.90;99.90;;;;;;5056790;28;20048;-74
2023/03/07 09:07:32;;;;;;;6.45;1.58;;;3.90;99.90;;;;;;5068581;28;20383;-74
2023/03/07 09:09:57;;;;;;;7.63;1.75;;;4.00;99.90;;;;;;5049439;28;20079;-73
2023/03/07 09:12:23;;;;;;;9.43;2.28;;;4.00;99.90;;;;;;5050130;28;20139;-73
2023/03/07 09:14:53;;;;;;;9.02;1.92;;;4.00;99.90;;;;;;5038525;28;20036;-72
2023/03/07 09:17:20;;;;;;;7.82;1.70;;;4.10;99.90;;;;;;5072416;28;20101;-73
2023/03/07 09:19:46;;;;;;;11.52;2.60;;;4.10;99.90;;;;;;5020433;28;20064;-72
2023/03/07 09:22:12;;;;;;;10.55;1.92;;;4.20;99.90;;;;;;5040425;28;20498;-72
2023/03/07 09:24:38;;;;;;;8.15;1.70;;;4.20;99.90;;;;;;5038449;28;20139;-72
2023/03/07 09:27:03;;;;;;;6.95;1.60;;;4.30;99.90;;;;;;5072822;28;20817;-72
2023/03/07 09:29:29;;;;;;;8.52;1.70;;;4.20;99.90;;;;;;5051851;28;20138;-72
2023/03/07 09:31:55;;;;;;;7.05;1.42;;;4.30;99.90;;;;;;5055902;28;20048;-72
2023/03/07 09:34:21;;;;;;;9.15;2.17;;;4.30;99.90;;;;;;5052731;28;20530;-72
2023/03/07 09:36:50;;;;;;;11.95;2.50;;;4.20;99.90;;;;;;5065491;28;20056;-72
2023/03/07 09:39:15;;;;;;;7.25;1.48;;;4.20;99.90;;;;;;5053974;28;20084;-73
2023/03/07 09:42:03;;;;;;;7.00;1.60;;;4.20;99.90;;;;;;5052263;28;20142;-74
2023/03/07 09:44:39;;;;;;;5.75;1.10;;;4.30;99.90;;;;;;5079163;27;20040;-74
2023/03/07 09:47:42;;;;;;;7.82;1.20;;;4.20;99.90;;;;;;5047860;28;20285;-74
2023/03/07 09:50:29;;;;;;;5.03;1.15;;;4.00;99.90;;;;;;5079571;28;20047;-74
2023/03/07 09:53:02;;;;;;;8.13;1.80;;;3.70;99.90;;;;;;5061797;28;20059;-74
2023/03/07 09:55:30;;;;;;;5.28;1.42;;;3.40;99.90;;;;;;5060979;28;20040;-74
2023/03/07 09:57:59;;;;;;;7.20;1.67;;;3.20;99.90;;;;;;5070410;28;20043;-74
2023/03/07 10:00:37;;;;;;;6.85;1.40;;;3.10;99.90;;;;;;5065884;28;20131;-73
2023/03/07 10:03:22;;;;;;;6.97;2.05;;;2.90;99.90;;;;;;5070834;28;20378;-73
2023/03/07 10:05:56;;;;;;;9.05;1.83;;;2.80;99.90;;;;;;5051160;28;20470;-74
2023/03/07 10:08:30;;;;;;;7.10;1.40;;;2.70;99.90;;;;;;5071107;28;20044;-74
2023/03/07 10:11:07;;;;;;;8.88;1.27;;;2.70;99.90;;;;;;5085646;28;20051;-72
2023/03/07 10:13:36;;;;;;;9.27;1.60;;;2.70;99.90;;;;;;5048540;28;20044;-72
2023/03/07 10:16:32;;;;;;;5.07;1.30;;;2.80;99.90;;;;;;5066264;28;20665;-72
2023/03/07 10:19:40;;;;;;;7.10;1.13;;;2.90;99.90;;;;;;5067758;28;20468;-73
2023/03/07 10:22:23;;;;;;;7.07;1.50;;;3.00;99.90;;;;;;5060295;28;20079;-73
2023/03/07 10:25:06;;;;;;;8.20;2.07;;;3.10;99.90;;;;;;5046623;28;20079;-73
2023/03/07 10:27:32;;;;;;;4.95;1.70;;;3.20;99.90;;;;;;5066058;28;20437;-74
2023/03/07 10:30:00;;;;;;;6.53;2.03;;;3.40;99.90;;;;;;5052336;28;20051;-73
2023/03/07 10:32:35;;;;;;;9.18;1.77;;;3.50;99.90;;;;;;5061444;28;20046;-73
2023/03/07 10:35:10;;;;;;;8.10;2.67;;;3.60;99.90;;;;;;5069490;28;20395;-73
2023/03/07 10:38:00;;;;;;;8.07;2.28;;;3.70;99.90;;;;;;5065846;28;20052;-74
2023/03/07 10:40:32;;;;;;;6.90;1.60;;;3.80;99.90;;;;;;5086345;28;20126;-73
2023/03/07 10:42:58;;;;;;;4.30;1.40;;;3.90;99.90;;;;;;5083658;28;20052;-73
2023/03/07 10:45:28;;;;;;;7.82;1.58;;;4.00;99.90;;;;;;5070526;28;20040;-74
2023/03/07 10:48:04;;;;;;;12.13;1.63;;;4.10;99.90;;;;;;5069233;28;20091;-73
2023/03/07 10:50:45;;;;;;;6.63;1.33;;;4.20;99.90;;;;;;5052238;28;20519;-73
2023/03/07 10:53:33;;;;;;;11.13;1.92;;;4.30;99.90;;;;;;5080736;28;20036;-74
2023/03/07 10:56:17;;;;;;;8.02;2.05;;;4.40;99.90;;;;;;5063645;28;20402;-74
2023/03/07 10:58:59;;;;;;;9.98;2.08;;;4.50;99.90;;;;;;5081086;28;20047;-75
2023/03/07 11:01:26;;;;;;;9.38;1.75;;;4.50;99.90;;;;;;5064119;28;20035;-73
2023/03/07 11:04:07;;;;;;;6.90;1.80;;;4.60;99.90;;;;;;5067349;28;20797;-73
2023/03/07 11:06:36;;;;;;;;;;;4.60;99.90;;;;;;5082097;28;20052;-74
2023/03/07 11:09:23;;;;;;;7.43;1.20;;;4.80;99.90;;;;;;5065745;28;20097;-74
2023/03/07 11:11:55;;;;;;;7.18;1.70;;;4.90;99.90;;;;;;5079538;28;20062;-74
2023/03/07 11:14:22;;;;;;;7.07;1.92;;;5.00;99.90;;;;;;5080059;28;20376;-73
2023/03/07 11:16:58;;;;;;;9.50;1.75;;;5.00;99.90;;;;;;5074210;28;20466;-73
2023/03/07 11:19:30;;;;;;;7.72;1.83;;;5.10;99.90;;;;;;5075056;28;20036;-74
2023/03/07 11:21:57;;;;;;;13.10;1.83;;;5.20;99.90;;;;;;5064358;28;20047;-73
2023/03/07 11:24:29;;;;;;;9.18;1.83;;;5.20;99.90;;;;;;5067420;28;20399;-74
2023/03/07 11:26:57;;;;;;;4.88;1.00;;;5.30;99.90;;;;;;5081220;28;20624;-74
2023/03/07 11:29:33;;;;;;;4.35;0.90;;;5.10;99.90;;;;;;5081482;28;20047;-74
2023/03/07 11:32:17;;;;;;;3.10;0.80;;;4.70;99.90;;;;;;5097889;28;20406;-74
2023/03/07 11:34:48;;;;;;;4.68;1.30;;;4.30;99.90;;;;;;5066288;28;20107;-73
2023/03/07 11:37:23;;;;;;;5.68;1.20;;;4.00;99.90;;;;;;5079024;28;20048;-74
2023/03/07 11:40:21;;;;;;;6.57;1.27;;;3.70;99.90;;;;;;5081284;28;20067;-74
2023/03/07 11:43:04;;;;;;;5.50;1.35;;;3.50;99.90;;;;;;5083951;28;20036;-71
2023/03/07 11:45:56;;;;;;;5.18;1.17;;;3.30;99.90;;;;;;5081983;28;20380;-74
2023/03/07 11:48:43;;;;;;;8.10;1.45;;;3.30;99.90;;;;;;5054721;28;20378;-74
2023/03/07 11:51:30;;;;;;;9.30;1.67;;;3.30;99.90;;;;;;5080826;28;20078;-74
2023/03/07 11:54:18;;;;;;;5.18;1.50;;;3.30;99.90;;;;;;5080296;28;20044;-73
2023/03/07 11:56:50;;;;;;;7.70;1.60;;;3.40;99.90;;;;;;5081662;28;20148;-73
2023/03/07 11:59:54;;;;;;;8.73;1.40;;;3.40;99.90;;;;;;5096705;27;20051;-73
2023/03/07 12:02:53;;;;;;;7.50;1.20;;;3.50;99.90;;;;;;5079773;28;20079;-73
2023/03/07 12:05:48;;;;;;;7.30;1.33;;;3.50;99.90;;;;;;5062731;28;20129;-73
2023/03/07 12:08:35;;;;;;;5.72;1.42;;;3.50;99.90;;;;;;5075783;28;20036;-73
2023/03/07 12:11:38;;;;;;;6.07;1.52;;;3.50;99.90;;;;;;5080513;28;20087;-73
2023/03/07 12:14:10;;;;;;;5.90;1.38;;;3.50;99.90;;;;;;5095475;28;20040;-73
2023/03/07 12:16:54;;;;;;;7.47;1.40;;;3.60;99.90;;;;;;5074737;28;20048;-73
2023/03/07 12:19:45;;;;;;;8.10;1.45;;;3.70;99.90;;;;;;5056868;28;20051;-73
2023/03/07 12:22:38;;;;;;;8.55;1.92;;;3.70;99.90;;;;;;5061940;28;20044;-73
2023/03/07 12:25:18;;;;;;;10.45;2.08;;;3.80;99.90;;;;;;5075560;28;20449;-72
2023/03/07 12:28:05;;;;;;;9.25;1.90;;;3.80;99.90;;;;;;5075397;28;20047;-72
2023/03/07 12:31:09;;;;;;;5.88;1.60;;;3.90;99.90;;;;;;5063979;28;20117;-72
2023/03/07 12:34:05;;;;;;;9.05;1.77;;;4.00;99.90;;;;;;5021990;28;20045;-72
2023/03/07 12:37:00;;;;;;;8.15;1.73;;;4.20;99.90;;;;;;5080513;28;20066;-72
2023/03/07 12:39:41;;;;;;;6.95;1.70;;;4.30;99.90;;;;;;5079818;28;20101;-72
2023/03/07 12:42:39;;;;;;;8.68;1.92;;;4.40;99.90;;;;;;5081981;28;20105;-73
2023/03/07 12:45:16;;;;;;;7.28;1.75;;;4.50;99.90;;;;;;5079359;28;20107;-74
2023/03/07 12:48:11;;;;;;;8.93;1.88;;;4.60;99.90;;;;;;5080691;28;20076;-72
2023/03/07 12:50:40;;;;;;;8.23;1.83;;;4.70;99.90;;;;;;5074503;28;20054;-72
2023/03/07 12:53:08;;;;;;;8.73;1.95;;;4.70;99.90;;;;;;5073042;28;20044;-72
2023/03/07 12:56:00;;;;;;;8.68;2.03;;;4.90;99.90;;;;;;5064291;28;20101;-73
2023/03/07 12:58:36;;;;;;;9.32;1.77;;;5.00;99.90;;;;;;5072870;28;20522;-73
2023/03/07 13:01:08;;;;;;;8.13;1.80;;;5.10;99.90;;;;;;5075744;28;20063;-75
2023/03/07 13:03:52;;;;;;;6.93;1.50;;;5.20;99.90;;;;;;5063658;28;20058;-74
2023/03/07 13:06:20;;;;;;;9.30;1.88;;;5.30;99.90;;;;;;5078988;28;20056;-76
2023/03/07 13:08:53;;;;;;;8.13;1.80;;;5.30;99.90;;;;;;5060275;28;20039;-75
2023/03/07 13:11:31;;;;;;;8.73;1.65;;;5.30;99.90;;;;;;5080118;28;20051;-73